sensor_id;sensor_type;location;lat;lon;timestamp;P1;durP1;ratioP1;P2;durP2;ratioP2
7193;SDS011;3638;48.820;9.244;2022-10-31T00:00:30;13.73;;;8.13;;
7193;SDS011;3638;48.820;9.244;2022-10-31T00:02:57;10.93;;;8.10;;
7193;SDS011;3638;48.820;9.244;2022-10-31T00:05:24;11.37;;;8.37;;
7193;SDS011;3638;48.820;9.244;2022-10-31T00:07:51;11.37;;;8.30;;
7193;SDS011;3638;48.820;9.244;2022-10-31T00:10:18;11.70;;;8.20;;
7193;SDS011;3638;48.820;9.244;2022-10-31T00:12:45;15.97;;;8.40;;
7193;SDS011;3638;48.820;9.244;2022-10-31T00:15:14;11.60;;;7.80;;
7193;SDS011;3638;48.820;9.244;2022-10-31T00:17:41;11.53;;;7.97;;
7193;SDS011;3638;48.820;9.244;2022-10-31T00:20:08;12.63;;;8.17;;
7193;SDS011;3638;48.820;9.244;2022-10-31T00:22:35;10.43;;;7.90;;
7193;SDS011;3638;48.820;9.244;2022-10-31T00:25:02;10.87;;;7.50;;
7193;SDS011;3638;48.820;9.244;2022-10-31T00:27:30;10.53;;;7.73;;
7193;SDS011;3638;48.820;9.244;2022-10-31T00:29:57;10.57;;;7.93;;
7193;SDS011;3638;48.820;9.244;2022-10-31T00:32:25;13.60;;;7.57;;
7193;SDS011;3638;48.820;9.244;2022-10-31T00:34:55;11.40;;;7.70;;
7193;SDS011;3638;48.820;9.244;2022-10-31T00:37:22;10.60;;;7.87;;
7193;SDS011;3638;48.820;9.244;2022-10-31T00:39:49;17.30;;;8.53;;
7193;SDS011;3638;48.820;9.244;2022-10-31T00:42:16;11.03;;;8.03;;
7193;SDS011;3638;48.820;9.244;2022-10-31T00:44:42;12.93;;;8.97;;
7193;SDS011;3638;48.820;9.244;2022-10-31T00:47:09;11.63;;;7.37;;
7193;SDS011;3638;48.820;9.244;2022-10-31T00:49:38;10.87;;;8.27;;
7193;SDS011;3638;48.820;9.244;2022-10-31T00:52:04;12.13;;;8.73;;
7193;SDS011;3638;48.820;9.244;2022-10-31T00:54:31;13.93;;;8.97;;
7193;SDS011;3638;48.820;9.244;2022-10-31T00:56:58;16.43;;;8.70;;
7193;SDS011;3638;48.820;9.244;2022-10-31T00:59:25;13.33;;;8.23;;
7193;SDS011;3638;48.820;9.244;2022-10-31T01:01:52;10.13;;;7.63;;
7193;SDS011;3638;48.820;9.244;2022-10-31T01:04:19;10.07;;;8.33;;
7193;SDS011;3638;48.820;9.244;2022-10-31T01:06:48;14.20;;;8.20;;
7193;SDS011;3638;48.820;9.244;2022-10-31T01:09:15;14.83;;;8.80;;
7193;SDS011;3638;48.820;9.244;2022-10-31T01:11:42;11.03;;;7.60;;
7193;SDS011;3638;48.820;9.244;2022-10-31T01:14:09;10.60;;;8.20;;
7193;SDS011;3638;48.820;9.244;2022-10-31T01:16:36;9.53;;;7.50;;
7193;SDS011;3638;48.820;9.244;2022-10-31T01:19:03;12.37;;;8.53;;
7193;SDS011;3638;48.820;9.244;2022-10-31T01:21:30;10.50;;;7.97;;
7193;SDS011;3638;48.820;9.244;2022-10-31T01:23:58;11.03;;;7.87;;
7193;SDS011;3638;48.820;9.244;2022-10-31T01:26:27;11.87;;;7.97;;
7193;SDS011;3638;48.820;9.244;2022-10-31T01:28:57;9.37;;;7.00;;
7193;SDS011;3638;48.820;9.244;2022-10-31T01:31:27;11.47;;;7.50;;
7193;SDS011;3638;48.820;9.244;2022-10-31T01:33:58;12.33;;;7.60;;
7193;SDS011;3638;48.820;9.244;2022-10-31T01:36:26;11.17;;;8.00;;
7193;SDS011;3638;48.820;9.244;2022-10-31T01:38:58;11.93;;;7.50;;
7193;SDS011;3638;48.820;9.244;2022-10-31T01:41:28;10.80;;;7.67;;
7193;SDS011;3638;48.820;9.244;2022-10-31T01:43:58;14.67;;;7.43;;
7193;SDS011;3638;48.820;9.244;2022-10-31T01:46:28;11.33;;;7.90;;
7193;SDS011;3638;48.820;9.244;2022-10-31T01:49:00;10.73;;;7.57;;
7193;SDS011;3638;48.820;9.244;2022-10-31T01:51:31;9.73;;;7.17;;
7193;SDS011;3638;48.820;9.244;2022-10-31T01:54:03;11.10;;;8.23;;
7193;SDS011;3638;48.820;9.244;2022-10-31T01:56:34;10.33;;;7.60;;
7193;SDS011;3638;48.820;9.244;2022-10-31T01:59:06;9.20;;;7.57;;
7193;SDS011;3638;48.820;9.244;2022-10-31T02:01:37;10.57;;;8.00;;
7193;SDS011;3638;48.820;9.244;2022-10-31T02:04:04;11.27;;;8.27;;
7193;SDS011;3638;48.820;9.244;2022-10-31T02:06:34;9.80;;;6.90;;
7193;SDS011;3638;48.820;9.244;2022-10-31T02:09:07;10.50;;;7.20;;
7193;SDS011;3638;48.820;9.244;2022-10-31T02:11:34;11.30;;;7.23;;
7193;SDS011;3638;48.820;9.244;2022-10-31T02:14:02;11.90;;;7.73;;
7193;SDS011;3638;48.820;9.244;2022-10-31T02:16:30;10.13;;;7.60;;
7193;SDS011;3638;48.820;9.244;2022-10-31T02:18:57;9.73;;;7.73;;
7193;SDS011;3638;48.820;9.244;2022-10-31T02:21:25;10.10;;;7.33;;
7193;SDS011;3638;48.820;9.244;2022-10-31T02:24:15;11.17;;;8.00;;
7193;SDS011;3638;48.820;9.244;2022-10-31T02:27:23;8.53;;;7.13;;
7193;SDS011;3638;48.820;9.244;2022-10-31T02:30:14;10.77;;;7.80;;
7193;SDS011;3638;48.820;9.244;2022-10-31T02:32:54;15.03;;;7.53;;
7193;SDS011;3638;48.820;9.244;2022-10-31T02:35:37;9.03;;;6.83;;
7193;SDS011;3638;48.820;9.244;2022-10-31T02:38:17;10.57;;;7.63;;
7193;SDS011;3638;48.820;9.244;2022-10-31T02:40:59;9.23;;;6.73;;
7193;SDS011;3638;48.820;9.244;2022-10-31T02:43:35;11.43;;;7.30;;
7193;SDS011;3638;48.820;9.244;2022-10-31T02:46:08;11.83;;;7.60;;
7193;SDS011;3638;48.820;9.244;2022-10-31T02:48:41;9.07;;;7.20;;
7193;SDS011;3638;48.820;9.244;2022-10-31T02:51:12;11.03;;;7.37;;
7193;SDS011;3638;48.820;9.244;2022-10-31T02:53:39;9.57;;;7.47;;
7193;SDS011;3638;48.820;9.244;2022-10-31T02:56:06;9.30;;;7.67;;
7193;SDS011;3638;48.820;9.244;2022-10-31T02:58:39;12.83;;;8.23;;
7193;SDS011;3638;48.820;9.244;2022-10-31T03:01:20;11.87;;;8.20;;
7193;SDS011;3638;48.820;9.244;2022-10-31T03:04:08;11.93;;;7.80;;
7193;SDS011;3638;48.820;9.244;2022-10-31T03:07:00;11.30;;;7.70;;
7193;SDS011;3638;48.820;9.244;2022-10-31T03:09:37;11.43;;;7.70;;
7193;SDS011;3638;48.820;9.244;2022-10-31T03:12:13;11.10;;;8.53;;
7193;SDS011;3638;48.820;9.244;2022-10-31T03:14:48;14.07;;;8.00;;
7193;SDS011;3638;48.820;9.244;2022-10-31T03:17:24;11.67;;;7.97;;
7193;SDS011;3638;48.820;9.244;2022-10-31T03:19:59;10.03;;;7.93;;
7193;SDS011;3638;48.820;9.244;2022-10-31T03:22:30;13.73;;;8.03;;
7193;SDS011;3638;48.820;9.244;2022-10-31T03:24:59;10.63;;;7.37;;
7193;SDS011;3638;48.820;9.244;2022-10-31T03:27:29;10.27;;;7.00;;
7193;SDS011;3638;48.820;9.244;2022-10-31T03:30:00;9.43;;;7.27;;
7193;SDS011;3638;48.820;9.244;2022-10-31T03:32:31;9.63;;;7.27;;
7193;SDS011;3638;48.820;9.244;2022-10-31T03:35:06;10.47;;;7.27;;
7193;SDS011;3638;48.820;9.244;2022-10-31T03:37:35;10.23;;;7.90;;
7193;SDS011;3638;48.820;9.244;2022-10-31T03:40:04;8.67;;;6.87;;
7193;SDS011;3638;48.820;9.244;2022-10-31T03:42:37;8.27;;;7.27;;
7193;SDS011;3638;48.820;9.244;2022-10-31T03:45:08;10.40;;;7.47;;
7193;SDS011;3638;48.820;9.244;2022-10-31T03:47:39;9.33;;;7.10;;
7193;SDS011;3638;48.820;9.244;2022-10-31T03:50:09;10.40;;;7.83;;
7193;SDS011;3638;48.820;9.244;2022-10-31T03:52:41;11.87;;;7.30;;
7193;SDS011;3638;48.820;9.244;2022-10-31T03:55:16;9.20;;;6.83;;
7193;SDS011;3638;48.820;9.244;2022-10-31T03:57:46;9.17;;;7.00;;
7193;SDS011;3638;48.820;9.244;2022-10-31T04:00:19;8.17;;;7.20;;
7193;SDS011;3638;48.820;9.244;2022-10-31T04:02:48;11.43;;;7.53;;
7193;SDS011;3638;48.820;9.244;2022-10-31T04:05:21;10.43;;;7.23;;
7193;SDS011;3638;48.820;9.244;2022-10-31T04:07:49;12.33;;;7.27;;
7193;SDS011;3638;48.820;9.244;2022-10-31T04:10:20;10.23;;;7.50;;
7193;SDS011;3638;48.820;9.244;2022-10-31T04:12:49;9.97;;;6.83;;
7193;SDS011;3638;48.820;9.244;2022-10-31T04:15:22;11.17;;;7.40;;
7193;SDS011;3638;48.820;9.244;2022-10-31T04:17:52;11.17;;;7.77;;
7193;SDS011;3638;48.820;9.244;2022-10-31T04:20:30;11.73;;;7.97;;
7193;SDS011;3638;48.820;9.244;2022-10-31T04:22:58;12.53;;;7.53;;
7193;SDS011;3638;48.820;9.244;2022-10-31T04:25:25;11.07;;;7.53;;
7193;SDS011;3638;48.820;9.244;2022-10-31T04:27:53;12.63;;;8.13;;
7193;SDS011;3638;48.820;9.244;2022-10-31T04:30:19;12.03;;;7.30;;
7193;SDS011;3638;48.820;9.244;2022-10-31T04:32:47;8.90;;;6.63;;
7193;SDS011;3638;48.820;9.244;2022-10-31T04:35:14;10.73;;;7.10;;
7193;SDS011;3638;48.820;9.244;2022-10-31T04:37:42;9.70;;;7.20;;
7193;SDS011;3638;48.820;9.244;2022-10-31T04:40:09;11.97;;;7.67;;
7193;SDS011;3638;48.820;9.244;2022-10-31T04:42:37;11.17;;;7.00;;
7193;SDS011;3638;48.820;9.244;2022-10-31T04:45:04;8.83;;;7.00;;
7193;SDS011;3638;48.820;9.244;2022-10-31T04:47:32;8.87;;;7.03;;
7193;SDS011;3638;48.820;9.244;2022-10-31T04:49:59;9.30;;;7.40;;
7193;SDS011;3638;48.820;9.244;2022-10-31T04:52:26;10.43;;;7.07;;
7193;SDS011;3638;48.820;9.244;2022-10-31T04:54:55;11.30;;;6.90;;
7193;SDS011;3638;48.820;9.244;2022-10-31T04:57:22;12.37;;;7.70;;
7193;SDS011;3638;48.820;9.244;2022-10-31T04:59:49;8.83;;;7.40;;
7193;SDS011;3638;48.820;9.244;2022-10-31T05:02:15;9.67;;;7.57;;
7193;SDS011;3638;48.820;9.244;2022-10-31T05:04:42;10.40;;;7.57;;
7193;SDS011;3638;48.820;9.244;2022-10-31T05:07:09;10.67;;;7.70;;
7193;SDS011;3638;48.820;9.244;2022-10-31T05:09:36;13.83;;;7.73;;
7193;SDS011;3638;48.820;9.244;2022-10-31T05:12:04;8.13;;;6.97;;
7193;SDS011;3638;48.820;9.244;2022-10-31T05:14:31;11.13;;;7.50;;
7193;SDS011;3638;48.820;9.244;2022-10-31T05:16:58;11.43;;;7.20;;
7193;SDS011;3638;48.820;9.244;2022-10-31T05:19:25;10.03;;;7.13;;
7193;SDS011;3638;48.820;9.244;2022-10-31T05:21:52;9.87;;;7.33;;
7193;SDS011;3638;48.820;9.244;2022-10-31T05:24:19;9.77;;;6.87;;
7193;SDS011;3638;48.820;9.244;2022-10-31T05:26:46;11.87;;;6.80;;
7193;SDS011;3638;48.820;9.244;2022-10-31T05:29:15;10.03;;;6.93;;
7193;SDS011;3638;48.820;9.244;2022-10-31T05:31:42;10.73;;;7.33;;
7193;SDS011;3638;48.820;9.244;2022-10-31T05:34:09;9.00;;;7.17;;
7193;SDS011;3638;48.820;9.244;2022-10-31T05:36:36;10.90;;;7.03;;
7193;SDS011;3638;48.820;9.244;2022-10-31T05:39:02;8.83;;;7.43;;
7193;SDS011;3638;48.820;9.244;2022-10-31T05:41:30;10.03;;;6.97;;
7193;SDS011;3638;48.820;9.244;2022-10-31T05:43:57;8.37;;;6.93;;
7193;SDS011;3638;48.820;9.244;2022-10-31T05:46:25;8.97;;;7.13;;
7193;SDS011;3638;48.820;9.244;2022-10-31T05:48:52;8.20;;;7.03;;
7193;SDS011;3638;48.820;9.244;2022-10-31T05:51:19;11.70;;;7.37;;
7193;SDS011;3638;48.820;9.244;2022-10-31T05:53:46;12.03;;;7.57;;
7193;SDS011;3638;48.820;9.244;2022-10-31T05:56:13;10.73;;;7.37;;
7193;SDS011;3638;48.820;9.244;2022-10-31T05:58:40;16.30;;;8.27;;
7193;SDS011;3638;48.820;9.244;2022-10-31T06:01:07;12.23;;;7.27;;
7193;SDS011;3638;48.820;9.244;2022-10-31T06:03:35;9.13;;;6.90;;
7193;SDS011;3638;48.820;9.244;2022-10-31T06:06:02;11.00;;;7.60;;
7193;SDS011;3638;48.820;9.244;2022-10-31T06:08:29;11.97;;;7.67;;
7193;SDS011;3638;48.820;9.244;2022-10-31T06:10:56;12.33;;;7.70;;
7193;SDS011;3638;48.820;9.244;2022-10-31T06:13:23;11.17;;;7.33;;
7193;SDS011;3638;48.820;9.244;2022-10-31T06:15:50;10.23;;;7.90;;
7193;SDS011;3638;48.820;9.244;2022-10-31T06:18:17;11.53;;;7.37;;
7193;SDS011;3638;48.820;9.244;2022-10-31T06:20:45;11.67;;;7.43;;
7193;SDS011;3638;48.820;9.244;2022-10-31T06:23:12;11.50;;;6.93;;
7193;SDS011;3638;48.820;9.244;2022-10-31T06:25:39;15.03;;;7.30;;
7193;SDS011;3638;48.820;9.244;2022-10-31T06:28:06;11.07;;;7.47;;
7193;SDS011;3638;48.820;9.244;2022-10-31T06:30:33;11.67;;;7.13;;
7193;SDS011;3638;48.820;9.244;2022-10-31T06:33:03;10.50;;;8.43;;
7193;SDS011;3638;48.820;9.244;2022-10-31T06:35:31;10.93;;;8.27;;
7193;SDS011;3638;48.820;9.244;2022-10-31T06:37:59;11.73;;;8.97;;
7193;SDS011;3638;48.820;9.244;2022-10-31T06:40:26;13.00;;;7.83;;
7193;SDS011;3638;48.820;9.244;2022-10-31T06:42:56;12.37;;;7.87;;
7193;SDS011;3638;48.820;9.244;2022-10-31T06:45:24;8.97;;;7.00;;
7193;SDS011;3638;48.820;9.244;2022-10-31T06:47:51;12.63;;;7.80;;
7193;SDS011;3638;48.820;9.244;2022-10-31T06:50:18;11.13;;;7.63;;
7193;SDS011;3638;48.820;9.244;2022-10-31T06:52:49;10.10;;;6.93;;
7193;SDS011;3638;48.820;9.244;2022-10-31T06:55:18;12.40;;;6.87;;
7193;SDS011;3638;48.820;9.244;2022-10-31T06:57:50;10.73;;;7.20;;
7193;SDS011;3638;48.820;9.244;2022-10-31T07:00:17;8.53;;;7.13;;
7193;SDS011;3638;48.820;9.244;2022-10-31T07:02:52;12.57;;;7.47;;
7193;SDS011;3638;48.820;9.244;2022-10-31T07:05:20;10.80;;;7.60;;
7193;SDS011;3638;48.820;9.244;2022-10-31T07:07:47;11.90;;;7.10;;
7193;SDS011;3638;48.820;9.244;2022-10-31T07:10:20;11.27;;;6.80;;
7193;SDS011;3638;48.820;9.244;2022-10-31T07:12:48;12.10;;;6.67;;
7193;SDS011;3638;48.820;9.244;2022-10-31T07:15:18;10.20;;;6.17;;
7193;SDS011;3638;48.820;9.244;2022-10-31T07:17:45;6.93;;;6.13;;
7193;SDS011;3638;48.820;9.244;2022-10-31T07:20:12;8.73;;;5.70;;
7193;SDS011;3638;48.820;9.244;2022-10-31T07:22:39;8.30;;;6.27;;
7193;SDS011;3638;48.820;9.244;2022-10-31T07:25:06;8.90;;;6.30;;
7193;SDS011;3638;48.820;9.244;2022-10-31T07:27:38;9.70;;;6.20;;
7193;SDS011;3638;48.820;9.244;2022-10-31T07:30:07;9.97;;;6.13;;
7193;SDS011;3638;48.820;9.244;2022-10-31T07:32:39;13.20;;;6.53;;
7193;SDS011;3638;48.820;9.244;2022-10-31T07:35:07;12.67;;;6.73;;
7193;SDS011;3638;48.820;9.244;2022-10-31T07:37:36;8.00;;;5.53;;
7193;SDS011;3638;48.820;9.244;2022-10-31T07:40:04;12.20;;;6.13;;
7193;SDS011;3638;48.820;9.244;2022-10-31T07:42:34;8.97;;;6.07;;
7193;SDS011;3638;48.820;9.244;2022-10-31T07:45:03;10.80;;;6.40;;
7193;SDS011;3638;48.820;9.244;2022-10-31T07:47:37;6.87;;;5.67;;
7193;SDS011;3638;48.820;9.244;2022-10-31T07:50:05;9.60;;;6.17;;
7193;SDS011;3638;48.820;9.244;2022-10-31T07:52:33;10.87;;;6.47;;
7193;SDS011;3638;48.820;9.244;2022-10-31T07:55:00;12.93;;;6.30;;
7193;SDS011;3638;48.820;9.244;2022-10-31T07:57:27;11.23;;;6.60;;
7193;SDS011;3638;48.820;9.244;2022-10-31T07:59:54;10.03;;;6.50;;
7193;SDS011;3638;48.820;9.244;2022-10-31T08:02:22;9.20;;;6.27;;
7193;SDS011;3638;48.820;9.244;2022-10-31T08:04:49;8.07;;;6.40;;
7193;SDS011;3638;48.820;9.244;2022-10-31T08:07:16;11.87;;;6.50;;
7193;SDS011;3638;48.820;9.244;2022-10-31T08:09:44;13.63;;;6.37;;
7193;SDS011;3638;48.820;9.244;2022-10-31T08:12:11;11.03;;;6.20;;
7193;SDS011;3638;48.820;9.244;2022-10-31T08:14:38;14.00;;;6.73;;
7193;SDS011;3638;48.820;9.244;2022-10-31T08:17:05;10.50;;;6.03;;
7193;SDS011;3638;48.820;9.244;2022-10-31T08:19:33;8.47;;;6.37;;
7193;SDS011;3638;48.820;9.244;2022-10-31T08:22:00;8.27;;;6.33;;
7193;SDS011;3638;48.820;9.244;2022-10-31T08:24:27;10.97;;;6.60;;
7193;SDS011;3638;48.820;9.244;2022-10-31T08:26:54;10.93;;;6.57;;
7193;SDS011;3638;48.820;9.244;2022-10-31T08:29:20;10.10;;;6.90;;
7193;SDS011;3638;48.820;9.244;2022-10-31T08:31:47;9.87;;;6.33;;
7193;SDS011;3638;48.820;9.244;2022-10-31T08:34:14;10.20;;;6.90;;
7193;SDS011;3638;48.820;9.244;2022-10-31T08:36:43;9.73;;;6.90;;
7193;SDS011;3638;48.820;9.244;2022-10-31T08:39:11;11.10;;;6.20;;
7193;SDS011;3638;48.820;9.244;2022-10-31T08:41:38;7.73;;;6.10;;
7193;SDS011;3638;48.820;9.244;2022-10-31T08:44:05;10.00;;;6.80;;
7193;SDS011;3638;48.820;9.244;2022-10-31T08:46:31;9.80;;;6.10;;
7193;SDS011;3638;48.820;9.244;2022-10-31T08:48:59;10.13;;;6.77;;
7193;SDS011;3638;48.820;9.244;2022-10-31T08:51:26;10.53;;;6.80;;
7193;SDS011;3638;48.820;9.244;2022-10-31T08:53:54;10.83;;;6.50;;
7193;SDS011;3638;48.820;9.244;2022-10-31T08:56:21;12.43;;;6.60;;
7193;SDS011;3638;48.820;9.244;2022-10-31T08:58:48;9.93;;;6.53;;
7193;SDS011;3638;48.820;9.244;2022-10-31T09:01:16;7.77;;;6.17;;
7193;SDS011;3638;48.820;9.244;2022-10-31T09:03:42;7.83;;;6.10;;
7193;SDS011;3638;48.820;9.244;2022-10-31T09:06:09;13.87;;;6.40;;
7193;SDS011;3638;48.820;9.244;2022-10-31T09:08:37;10.87;;;7.00;;
7193;SDS011;3638;48.820;9.244;2022-10-31T09:11:05;10.47;;;6.60;;
7193;SDS011;3638;48.820;9.244;2022-10-31T09:13:32;10.83;;;6.67;;
7193;SDS011;3638;48.820;9.244;2022-10-31T09:15:59;10.97;;;6.73;;
7193;SDS011;3638;48.820;9.244;2022-10-31T09:18:26;12.73;;;6.43;;
7193;SDS011;3638;48.820;9.244;2022-10-31T09:20:53;12.70;;;6.70;;
7193;SDS011;3638;48.820;9.244;2022-10-31T09:23:23;8.67;;;6.00;;
7193;SDS011;3638;48.820;9.244;2022-10-31T09:25:51;15.00;;;9.75;;
7193;SDS011;3638;48.820;9.244;2022-10-31T09:28:21;15.63;;;11.03;;
7193;SDS011;3638;48.820;9.244;2022-10-31T09:30:50;18.00;;;12.40;;
7193;SDS011;3638;48.820;9.244;2022-10-31T09:33:19;18.03;;;11.80;;
7193;SDS011;3638;48.820;9.244;2022-10-31T09:35:48;16.90;;;12.40;;
7193;SDS011;3638;48.820;9.244;2022-10-31T09:38:15;16.13;;;10.97;;
7193;SDS011;3638;48.820;9.244;2022-10-31T09:40:45;19.40;;;11.77;;
7193;SDS011;3638;48.820;9.244;2022-10-31T09:43:16;21.13;;;13.60;;
7193;SDS011;3638;48.820;9.244;2022-10-31T09:45:57;20.53;;;11.27;;
7193;SDS011;3638;48.820;9.244;2022-10-31T09:48:36;12.43;;;9.60;;
7193;SDS011;3638;48.820;9.244;2022-10-31T09:51:17;15.33;;;9.17;;
7193;SDS011;3638;48.820;9.244;2022-10-31T09:53:48;15.67;;;9.13;;
7193;SDS011;3638;48.820;9.244;2022-10-31T09:56:21;11.17;;;8.07;;
7193;SDS011;3638;48.820;9.244;2022-10-31T09:58:51;12.93;;;7.57;;
7193;SDS011;3638;48.820;9.244;2022-10-31T10:04:17;11.02;;;6.40;;
7193;SDS011;3638;48.820;9.244;2022-10-31T10:06:58;9.33;;;5.80;;
7193;SDS011;3638;48.820;9.244;2022-10-31T10:09:28;11.23;;;7.20;;
7193;SDS011;3638;48.820;9.244;2022-10-31T10:11:58;13.57;;;6.77;;
7193;SDS011;3638;48.820;9.244;2022-10-31T10:14:45;13.03;;;9.37;;
7193;SDS011;3638;48.820;9.244;2022-10-31T10:17:32;11.27;;;7.13;;
7193;SDS011;3638;48.820;9.244;2022-10-31T10:20:15;13.40;;;8.15;;
7193;SDS011;3638;48.820;9.244;2022-10-31T10:22:52;21.70;;;14.50;;
7193;SDS011;3638;48.820;9.244;2022-10-31T10:25:33;386.75;;;49.70;;
7193;SDS011;3638;48.820;9.244;2022-10-31T10:28:08;312.15;;;41.03;;
7193;SDS011;3638;48.820;9.244;2022-10-31T10:30:46;26.45;;;9.70;;
7193;SDS011;3638;48.820;9.244;2022-10-31T10:33:18;14.57;;;7.18;;
7193;SDS011;3638;48.820;9.244;2022-10-31T10:35:50;11.52;;;7.32;;
7193;SDS011;3638;48.820;9.244;2022-10-31T10:38:24;12.20;;;6.80;;
7193;SDS011;3638;48.820;9.244;2022-10-31T10:41:04;9.13;;;6.40;;
7193;SDS011;3638;48.820;9.244;2022-10-31T10:43:38;13.93;;;9.63;;
7193;SDS011;3638;48.820;9.244;2022-10-31T10:46:12;14.80;;;10.13;;
7193;SDS011;3638;48.820;9.244;2022-10-31T10:49:15;22.23;;;12.98;;
7193;SDS011;3638;48.820;9.244;2022-10-31T10:51:45;14.20;;;8.27;;
7193;SDS011;3638;48.820;9.244;2022-10-31T10:54:31;15.80;;;11.55;;
7193;SDS011;3638;48.820;9.244;2022-10-31T10:57:22;16.70;;;8.32;;
7193;SDS011;3638;48.820;9.244;2022-10-31T11:00:10;11.38;;;5.90;;
7193;SDS011;3638;48.820;9.244;2022-10-31T11:02:45;13.00;;;5.53;;
7193;SDS011;3638;48.820;9.244;2022-10-31T11:05:13;8.43;;;5.32;;
7193;SDS011;3638;48.820;9.244;2022-10-31T11:07:49;10.77;;;5.72;;
7193;SDS011;3638;48.820;9.244;2022-10-31T11:10:17;9.55;;;5.78;;
7193;SDS011;3638;48.820;9.244;2022-10-31T11:12:45;10.68;;;5.60;;
7193;SDS011;3638;48.820;9.244;2022-10-31T11:15:31;7.45;;;4.43;;
7193;SDS011;3638;48.820;9.244;2022-10-31T11:18:04;9.95;;;5.63;;
7193;SDS011;3638;48.820;9.244;2022-10-31T11:20:32;10.23;;;6.22;;
7193;SDS011;3638;48.820;9.244;2022-10-31T11:23:10;15.77;;;6.63;;
7193;SDS011;3638;48.820;9.244;2022-10-31T11:25:53;11.07;;;6.30;;
7193;SDS011;3638;48.820;9.244;2022-10-31T11:28:23;10.55;;;5.45;;
7193;SDS011;3638;48.820;9.244;2022-10-31T11:30:51;9.27;;;5.28;;
7193;SDS011;3638;48.820;9.244;2022-10-31T11:33:24;9.27;;;5.60;;
7193;SDS011;3638;48.820;9.244;2022-10-31T11:35:56;8.80;;;5.45;;
7193;SDS011;3638;48.820;9.244;2022-10-31T11:38:24;9.93;;;5.15;;
7193;SDS011;3638;48.820;9.244;2022-10-31T11:40:59;12.90;;;5.93;;
7193;SDS011;3638;48.820;9.244;2022-10-31T11:43:35;9.98;;;5.53;;
7193;SDS011;3638;48.820;9.244;2022-10-31T11:46:08;7.78;;;5.50;;
7193;SDS011;3638;48.820;9.244;2022-10-31T11:48:37;10.30;;;5.05;;
7193;SDS011;3638;48.820;9.244;2022-10-31T11:51:05;7.15;;;5.18;;
7193;SDS011;3638;48.820;9.244;2022-10-31T11:53:33;9.10;;;6.07;;
7193;SDS011;3638;48.820;9.244;2022-10-31T11:56:02;8.70;;;5.40;;
7193;SDS011;3638;48.820;9.244;2022-10-31T11:58:35;7.53;;;4.82;;
7193;SDS011;3638;48.820;9.244;2022-10-31T12:01:02;6.82;;;5.03;;
7193;SDS011;3638;48.820;9.244;2022-10-31T12:03:34;8.93;;;5.50;;
7193;SDS011;3638;48.820;9.244;2022-10-31T12:06:11;7.97;;;5.07;;
7193;SDS011;3638;48.820;9.244;2022-10-31T12:08:42;9.07;;;5.30;;
7193;SDS011;3638;48.820;9.244;2022-10-31T12:11:14;13.50;;;6.30;;
7193;SDS011;3638;48.820;9.244;2022-10-31T12:14:02;9.60;;;5.63;;
7193;SDS011;3638;48.820;9.244;2022-10-31T12:16:39;10.75;;;5.22;;
7193;SDS011;3638;48.820;9.244;2022-10-31T12:19:18;10.40;;;5.30;;
7193;SDS011;3638;48.820;9.244;2022-10-31T12:22:03;8.27;;;5.07;;
7193;SDS011;3638;48.820;9.244;2022-10-31T12:27:51;8.63;;;5.10;;
7193;SDS011;3638;48.820;9.244;2022-10-31T12:30:32;9.77;;;5.95;;
7193;SDS011;3638;48.820;9.244;2022-10-31T12:33:20;10.65;;;6.05;;
7193;SDS011;3638;48.820;9.244;2022-10-31T12:36:12;7.93;;;4.95;;
7193;SDS011;3638;48.820;9.244;2022-10-31T12:38:59;6.95;;;5.10;;
7193;SDS011;3638;48.820;9.244;2022-10-31T12:41:50;10.95;;;5.10;;
7193;SDS011;3638;48.820;9.244;2022-10-31T12:47:30;8.07;;;4.88;;
7193;SDS011;3638;48.820;9.244;2022-10-31T12:50:16;7.30;;;4.70;;
7193;SDS011;3638;48.820;9.244;2022-10-31T12:52:59;8.55;;;5.20;;
7193;SDS011;3638;48.820;9.244;2022-10-31T12:55:40;8.07;;;4.88;;
7193;SDS011;3638;48.820;9.244;2022-10-31T12:58:20;7.22;;;4.72;;
7193;SDS011;3638;48.820;9.244;2022-10-31T13:00:53;7.47;;;4.50;;
7193;SDS011;3638;48.820;9.244;2022-10-31T13:03:36;9.88;;;4.72;;
7193;SDS011;3638;48.820;9.244;2022-10-31T13:06:13;9.00;;;4.60;;
7193;SDS011;3638;48.820;9.244;2022-10-31T13:08:47;6.10;;;4.78;;
7193;SDS011;3638;48.820;9.244;2022-10-31T13:11:19;9.27;;;5.07;;
7193;SDS011;3638;48.820;9.244;2022-10-31T13:13:52;9.27;;;5.07;;
7193;SDS011;3638;48.820;9.244;2022-10-31T13:16:27;12.48;;;5.15;;
7193;SDS011;3638;48.820;9.244;2022-10-31T13:19:00;8.48;;;4.90;;
7193;SDS011;3638;48.820;9.244;2022-10-31T13:21:37;6.40;;;4.68;;
7193;SDS011;3638;48.820;9.244;2022-10-31T13:24:11;10.02;;;6.45;;
7193;SDS011;3638;48.820;9.244;2022-10-31T13:26:45;8.63;;;5.43;;
7193;SDS011;3638;48.820;9.244;2022-10-31T13:29:18;12.90;;;5.90;;
7193;SDS011;3638;48.820;9.244;2022-10-31T13:31:50;9.00;;;5.35;;
7193;SDS011;3638;48.820;9.244;2022-10-31T13:34:19;10.18;;;5.75;;
7193;SDS011;3638;48.820;9.244;2022-10-31T13:36:55;7.38;;;5.82;;
7193;SDS011;3638;48.820;9.244;2022-10-31T13:39:32;9.52;;;5.85;;
7193;SDS011;3638;48.820;9.244;2022-10-31T13:42:32;7.20;;;5.07;;
7193;SDS011;3638;48.820;9.244;2022-10-31T13:45:13;7.82;;;5.18;;
7193;SDS011;3638;48.820;9.244;2022-10-31T13:47:42;12.35;;;5.65;;
7193;SDS011;3638;48.820;9.244;2022-10-31T13:50:19;10.02;;;5.57;;
7193;SDS011;3638;48.820;9.244;2022-10-31T13:52:49;7.40;;;5.20;;
7193;SDS011;3638;48.820;9.244;2022-10-31T13:58:16;9.05;;;5.90;;
7193;SDS011;3638;48.820;9.244;2022-10-31T14:00:59;13.80;;;5.78;;
7193;SDS011;3638;48.820;9.244;2022-10-31T14:03:40;12.85;;;6.38;;
7193;SDS011;3638;48.820;9.244;2022-10-31T14:06:10;9.57;;;5.65;;
7193;SDS011;3638;48.820;9.244;2022-10-31T14:08:40;14.95;;;6.88;;
7193;SDS011;3638;48.820;9.244;2022-10-31T14:11:33;10.43;;;5.97;;
7193;SDS011;3638;48.820;9.244;2022-10-31T14:14:00;12.57;;;5.40;;
7193;SDS011;3638;48.820;9.244;2022-10-31T14:16:28;10.05;;;5.30;;
7193;SDS011;3638;48.820;9.244;2022-10-31T14:18:59;10.88;;;5.97;;
7193;SDS011;3638;48.820;9.244;2022-10-31T14:21:36;10.13;;;6.70;;
7193;SDS011;3638;48.820;9.244;2022-10-31T14:24:12;9.75;;;6.90;;
7193;SDS011;3638;48.820;9.244;2022-10-31T14:26:52;12.43;;;6.68;;
7193;SDS011;3638;48.820;9.244;2022-10-31T14:29:24;9.73;;;5.65;;
7193;SDS011;3638;48.820;9.244;2022-10-31T14:31:54;10.93;;;5.28;;
7193;SDS011;3638;48.820;9.244;2022-10-31T14:34:26;8.90;;;5.60;;
7193;SDS011;3638;48.820;9.244;2022-10-31T14:37:19;8.70;;;5.50;;
7193;SDS011;3638;48.820;9.244;2022-10-31T14:40:23;8.02;;;5.28;;
7193;SDS011;3638;48.820;9.244;2022-10-31T14:42:59;6.65;;;4.93;;
7193;SDS011;3638;48.820;9.244;2022-10-31T14:45:47;7.43;;;5.28;;
7193;SDS011;3638;48.820;9.244;2022-10-31T14:48:30;9.90;;;5.30;;
7193;SDS011;3638;48.820;9.244;2022-10-31T14:51:17;7.55;;;5.72;;
7193;SDS011;3638;48.820;9.244;2022-10-31T14:53:48;8.70;;;6.05;;
7193;SDS011;3638;48.820;9.244;2022-10-31T14:56:19;10.77;;;5.63;;
7193;SDS011;3638;48.820;9.244;2022-10-31T14:58:52;12.13;;;6.15;;
7193;SDS011;3638;48.820;9.244;2022-10-31T15:01:24;9.15;;;5.80;;
7193;SDS011;3638;48.820;9.244;2022-10-31T15:03:54;8.20;;;5.00;;
7193;SDS011;3638;48.820;9.244;2022-10-31T15:06:25;9.55;;;5.70;;
7193;SDS011;3638;48.820;9.244;2022-10-31T15:08:57;13.82;;;6.50;;
7193;SDS011;3638;48.820;9.244;2022-10-31T15:11:24;12.55;;;7.00;;
7193;SDS011;3638;48.820;9.244;2022-10-31T15:13:54;9.98;;;6.43;;
7193;SDS011;3638;48.820;9.244;2022-10-31T15:16:24;13.10;;;7.72;;
7193;SDS011;3638;48.820;9.244;2022-10-31T15:18:54;8.30;;;5.82;;
7193;SDS011;3638;48.820;9.244;2022-10-31T15:21:25;11.38;;;6.75;;
7193;SDS011;3638;48.820;9.244;2022-10-31T15:23:54;12.90;;;6.30;;
7193;SDS011;3638;48.820;9.244;2022-10-31T15:26:25;10.70;;;6.60;;
7193;SDS011;3638;48.820;9.244;2022-10-31T15:28:59;11.60;;;6.40;;
7193;SDS011;3638;48.820;9.244;2022-10-31T15:31:27;11.27;;;6.32;;
7193;SDS011;3638;48.820;9.244;2022-10-31T15:33:56;12.35;;;7.20;;
7193;SDS011;3638;48.820;9.244;2022-10-31T15:36:28;10.30;;;7.00;;
7193;SDS011;3638;48.820;9.244;2022-10-31T15:38:55;13.50;;;7.50;;
7193;SDS011;3638;48.820;9.244;2022-10-31T15:41:33;11.23;;;7.70;;
7193;SDS011;3638;48.820;9.244;2022-10-31T15:44:14;15.95;;;7.18;;